sensor_id;sensor_type;location;lat;lon;timestamp;pressure;altitude;pressure_sealevel;temperature;humidity
54554;BME280;40450;55.848;-3.572;2023-08-01T00:01:54;97387.69;;;16.51;80.39
54554;BME280;40450;55.848;-3.572;2023-08-01T00:04:25;97395.70;;;17.40;77.99
54554;BME280;40450;55.848;-3.572;2023-08-01T00:06:55;97397.67;;;18.00;75.14
54554;BME280;40450;55.848;-3.572;2023-08-01T00:09:25;97398.93;;;17.86;75.33
54554;BME280;40450;55.848;-3.572;2023-08-01T00:11:56;97398.21;;;18.66;74.92
54554;BME280;40450;55.848;-3.572;2023-08-01T00:14:26;97402.61;;;17.66;76.43
54554;BME280;40450;55.848;-3.572;2023-08-01T00:16:56;97402.92;;;17.93;75.34
54554;BME280;40450;55.848;-3.572;2023-08-01T00:19:27;97402.87;;;19.18;73.32
54554;BME280;40450;55.848;-3.572;2023-08-01T00:21:57;97402.34;;;19.42;73.15
54554;BME280;40450;55.848;-3.572;2023-08-01T00:24:27;97396.13;;;19.70;71.20
54554;BME280;40450;55.848;-3.572;2023-08-01T00:26:57;97398.09;;;20.03;70.58
54554;BME280;40450;55.848;-3.572;2023-08-01T00:29:28;97395.41;;;20.02;69.09
54554;BME280;40450;55.848;-3.572;2023-08-01T00:31:58;97396.83;;;19.99;69.85
54554;BME280;40450;55.848;-3.572;2023-08-01T00:34:28;97397.51;;;20.33;69.12
54554;BME280;40450;55.848;-3.572;2023-08-01T00:36:59;97396.34;;;20.50;68.98
54554;BME280;40450;55.848;-3.572;2023-08-01T00:39:29;97396.26;;;20.71;68.10
54554;BME280;40450;55.848;-3.572;2023-08-01T00:41:59;97395.49;;;20.82;66.84
54554;BME280;40450;55.848;-3.572;2023-08-01T00:44:30;97394.23;;;20.43;67.27
54554;BME280;40450;55.848;-3.572;2023-08-01T00:47:00;97395.65;;;18.56;72.35
54554;BME280;40450;55.848;-3.572;2023-08-01T00:49:30;97396.43;;;19.76;69.56
54554;BME280;40450;55.848;-3.572;2023-08-01T00:52:01;97396.60;;;19.58;69.41
54554;BME280;40450;55.848;-3.572;2023-08-01T00:54:31;97395.85;;;20.15;68.48
54554;BME280;40450;55.848;-3.572;2023-08-01T00:57:01;97394.16;;;20.28;68.22
54554;BME280;40450;55.848;-3.572;2023-08-01T00:59:32;97393.79;;;20.07;68.33
54554;BME280;40450;55.848;-3.572;2023-08-01T01:02:02;97396.09;;;19.43;69.11
54554;BME280;40450;55.848;-3.572;2023-08-01T01:04:32;97396.85;;;20.15;68.21
54554;BME280;40450;55.848;-3.572;2023-08-01T01:07:03;97400.15;;;19.88;69.02
54554;BME280;40450;55.848;-3.572;2023-08-01T01:09:33;97413.00;;;16.66;79.01
54554;BME280;40450;55.848;-3.572;2023-08-01T01:12:03;97409.92;;;18.70;73.85
54554;BME280;40450;55.848;-3.572;2023-08-01T01:14:33;97414.16;;;18.17;74.80
54554;BME280;40450;55.848;-3.572;2023-08-01T01:17:04;97417.21;;;16.77;79.64
54554;BME280;40450;55.848;-3.572;2023-08-01T01:19:34;97420.90;;;17.08;80.11
54554;BME280;40450;55.848;-3.572;2023-08-01T01:22:05;97427.55;;;15.45;86.16
54554;BME280;40450;55.848;-3.572;2023-08-01T01:24:35;97425.02;;;16.34;83.14
54554;BME280;40450;55.848;-3.572;2023-08-01T01:27:06;97427.52;;;17.22;81.65
54554;BME280;40450;55.848;-3.572;2023-08-01T01:29:36;97421.31;;;18.48;78.29
54554;BME280;40450;55.848;-3.572;2023-08-01T01:32:06;97430.27;;;17.86;79.35
54554;BME280;40450;55.848;-3.572;2023-08-01T01:34:36;97432.08;;;18.26;77.50
54554;BME280;40450;55.848;-3.572;2023-08-01T01:37:06;97433.32;;;18.21;78.30
54554;BME280;40450;55.848;-3.572;2023-08-01T01:39:37;97430.03;;;18.66;75.70
54554;BME280;40450;55.848;-3.572;2023-08-01T01:42:07;97435.68;;;16.13;83.55
54554;BME280;40450;55.848;-3.572;2023-08-01T01:44:37;97433.05;;;16.07;84.14
54554;BME280;40450;55.848;-3.572;2023-08-01T01:47:07;97436.04;;;17.97;79.74
54554;BME280;40450;55.848;-3.572;2023-08-01T01:49:38;97432.79;;;18.93;77.08
54554;BME280;40450;55.848;-3.572;2023-08-01T01:52:08;97432.13;;;19.41;74.19
54554;BME280;40450;55.848;-3.572;2023-08-01T01:54:39;97432.78;;;18.98;73.66
54554;BME280;40450;55.848;-3.572;2023-08-01T01:57:09;97430.21;;;19.59;72.15
54554;BME280;40450;55.848;-3.572;2023-08-01T01:59:39;97429.32;;;19.56;72.10
54554;BME280;40450;55.848;-3.572;2023-08-01T02:02:09;97426.13;;;19.07;73.02
54554;BME280;40450;55.848;-3.572;2023-08-01T02:04:40;97430.44;;;17.81;76.34
54554;BME280;40450;55.848;-3.572;2023-08-01T02:07:10;97423.99;;;18.83;74.25
54554;BME280;40450;55.848;-3.572;2023-08-01T02:09:40;97421.79;;;19.36;73.57
54554;BME280;40450;55.848;-3.572;2023-08-01T02:12:11;97419.83;;;19.64;72.87
54554;BME280;40450;55.848;-3.572;2023-08-01T02:14:41;97416.95;;;20.08;71.73
54554;BME280;40450;55.848;-3.572;2023-08-01T02:17:11;97415.50;;;20.43;71.46
54554;BME280;40450;55.848;-3.572;2023-08-01T02:19:42;97414.09;;;19.32;72.56
54554;BME280;40450;55.848;-3.572;2023-08-01T02:22:12;97411.85;;;19.10;72.85
54554;BME280;40450;55.848;-3.572;2023-08-01T02:24:42;97412.26;;;19.81;71.20
54554;BME280;40450;55.848;-3.572;2023-08-01T02:27:12;97416.40;;;20.28;70.81
54554;BME280;40450;55.848;-3.572;2023-08-01T02:29:43;97420.82;;;19.17;72.53
54554;BME280;40450;55.848;-3.572;2023-08-01T02:32:13;97421.75;;;19.50;72.06
54554;BME280;40450;55.848;-3.572;2023-08-01T02:34:43;97420.86;;;19.27;71.75
54554;BME280;40450;55.848;-3.572;2023-08-01T02:37:14;97423.61;;;18.77;72.06
54554;BME280;40450;55.848;-3.572;2023-08-01T02:39:44;97427.70;;;18.29;75.13
54554;BME280;40450;55.848;-3.572;2023-08-01T02:42:14;97426.92;;;18.86;73.66
54554;BME280;40450;55.848;-3.572;2023-08-01T02:44:45;97432.64;;;16.82;80.65
54554;BME280;40450;55.848;-3.572;2023-08-01T02:47:15;97432.37;;;16.21;83.40
54554;BME280;40450;55.848;-3.572;2023-08-01T02:49:45;97427.11;;;18.70;77.07
54554;BME280;40450;55.848;-3.572;2023-08-01T02:52:16;97432.83;;;17.47;78.76
54554;BME280;40450;55.848;-3.572;2023-08-01T02:54:46;97428.90;;;18.87;75.75
54554;BME280;40450;55.848;-3.572;2023-08-01T02:57:16;97429.07;;;19.58;73.75
54554;BME280;40450;55.848;-3.572;2023-08-01T02:59:47;97431.43;;;18.97;75.65
54554;BME280;40450;55.848;-3.572;2023-08-01T03:02:17;97436.19;;;17.52;78.33
54554;BME280;40450;55.848;-3.572;2023-08-01T03:04:47;97439.34;;;17.36;78.64
54554;BME280;40450;55.848;-3.572;2023-08-01T03:07:18;97443.10;;;16.13;83.63
54554;BME280;40450;55.848;-3.572;2023-08-01T03:09:48;97444.02;;;16.70;81.65
54554;BME280;40450;55.848;-3.572;2023-08-01T03:12:18;97447.38;;;16.93;82.31
54554;BME280;40450;55.848;-3.572;2023-08-01T03:14:49;97450.59;;;14.43;89.77
54554;BME280;40450;55.848;-3.572;2023-08-01T03:17:19;97456.66;;;13.23;95.17
54554;BME280;40450;55.848;-3.572;2023-08-01T03:19:49;97451.26;;;15.50;89.13
54554;BME280;40450;55.848;-3.572;2023-08-01T03:22:20;97449.68;;;14.65;90.28
54554;BME280;40450;55.848;-3.572;2023-08-01T03:24:51;97446.78;;;16.69;83.66
54554;BME280;40450;55.848;-3.572;2023-08-01T03:27:21;97448.90;;;17.83;82.82
54554;BME280;40450;55.848;-3.572;2023-08-01T03:29:51;97446.07;;;18.44;80.98
54554;BME280;40450;55.848;-3.572;2023-08-01T03:32:21;97447.71;;;18.86;79.08
54554;BME280;40450;55.848;-3.572;2023-08-01T03:34:52;97457.83;;;15.81;85.99
54554;BME280;40450;55.848;-3.572;2023-08-01T03:37:22;97455.81;;;16.67;83.27
54554;BME280;40450;55.848;-3.572;2023-08-01T03:39:52;97463.74;;;13.55;93.66
54554;BME280;40450;55.848;-3.572;2023-08-01T03:42:23;97464.97;;;12.41;97.43
54554;BME280;40450;55.848;-3.572;2023-08-01T03:44:53;97466.35;;;12.97;96.54
54554;BME280;40450;55.848;-3.572;2023-08-01T03:47:23;97466.97;;;11.05;100.00
54554;BME280;40450;55.848;-3.572;2023-08-01T03:49:54;97464.03;;;14.23;94.74
54554;BME280;40450;55.848;-3.572;2023-08-01T03:52:24;97465.93;;;13.29;95.50
54554;BME280;40450;55.848;-3.572;2023-08-01T03:54:55;97465.98;;;13.06;96.32
54554;BME280;40450;55.848;-3.572;2023-08-01T03:57:25;97468.43;;;10.52;100.00
54554;BME280;40450;55.848;-3.572;2023-08-01T03:59:56;97465.39;;;12.46;99.55
54554;BME280;40450;55.848;-3.572;2023-08-01T04:02:26;97470.16;;;12.78;98.60
54554;BME280;40450;55.848;-3.572;2023-08-01T04:04:58;97468.62;;;11.95;99.80
54554;BME280;40450;55.848;-3.572;2023-08-01T04:07:27;97469.83;;;13.39;97.45
54554;BME280;40450;55.848;-3.572;2023-08-01T04:09:57;97467.10;;;14.15;95.29
54554;BME280;40450;55.848;-3.572;2023-08-01T04:12:27;97469.73;;;13.23;96.78
54554;BME280;40450;55.848;-3.572;2023-08-01T04:14:58;97472.14;;;13.89;95.02
54554;BME280;40450;55.848;-3.572;2023-08-01T04:17:28;97470.14;;;15.04;91.13
54554;BME280;40450;55.848;-3.572;2023-08-01T04:20:00;97474.92;;;14.72;93.61
54554;BME280;40450;55.848;-3.572;2023-08-01T04:22:30;97482.61;;;14.08;94.58
54554;BME280;40450;55.848;-3.572;2023-08-01T04:25:01;97480.18;;;14.77;94.31
54554;BME280;40450;55.848;-3.572;2023-08-01T04:27:30;97485.64;;;15.22;91.27
54554;BME280;40450;55.848;-3.572;2023-08-01T04:30:01;97491.22;;;14.09;93.88
54554;BME280;40450;55.848;-3.572;2023-08-01T04:32:31;97485.66;;;14.82;91.88
54554;BME280;40450;55.848;-3.572;2023-08-01T04:35:02;97496.61;;;13.12;96.51
54554;BME280;40450;55.848;-3.572;2023-08-01T04:37:33;97500.45;;;12.85;98.89
54554;BME280;40450;55.848;-3.572;2023-08-01T04:40:03;97504.61;;;14.04;96.65
54554;BME280;40450;55.848;-3.572;2023-08-01T04:42:33;97512.18;;;11.66;100.00
54554;BME280;40450;55.848;-3.572;2023-08-01T04:45:04;97509.09;;;14.37;96.18
54554;BME280;40450;55.848;-3.572;2023-08-01T04:47:33;97513.40;;;12.55;98.48
54554;BME280;40450;55.848;-3.572;2023-08-01T04:50:06;97514.78;;;14.34;95.82
54554;BME280;40450;55.848;-3.572;2023-08-01T04:52:34;97521.45;;;13.48;96.78
54554;BME280;40450;55.848;-3.572;2023-08-01T04:55:06;97527.01;;;10.61;100.00
54554;BME280;40450;55.848;-3.572;2023-08-01T04:57:35;97525.14;;;11.31;100.00
54554;BME280;40450;55.848;-3.572;2023-08-01T05:00:06;97516.57;;;12.23;100.00
54554;BME280;40450;55.848;-3.572;2023-08-01T05:02:36;97518.70;;;11.81;100.00
54554;BME280;40450;55.848;-3.572;2023-08-01T05:05:07;97522.50;;;12.41;99.94
54554;BME280;40450;55.848;-3.572;2023-08-01T05:07:37;97530.30;;;10.58;100.00
54554;BME280;40450;55.848;-3.572;2023-08-01T05:10:07;97536.63;;;10.30;100.00
54554;BME280;40450;55.848;-3.572;2023-08-01T05:12:37;97536.83;;;10.94;100.00
54554;BME280;40450;55.848;-3.572;2023-08-01T05:15:08;97537.82;;;10.69;100.00
54554;BME280;40450;55.848;-3.572;2023-08-01T05:17:37;97541.44;;;11.26;100.00
54554;BME280;40450;55.848;-3.572;2023-08-01T05:20:08;97548.73;;;9.54;100.00
54554;BME280;40450;55.848;-3.572;2023-08-01T05:22:38;97545.96;;;10.42;100.00
54554;BME280;40450;55.848;-3.572;2023-08-01T05:25:09;97550.15;;;10.16;100.00
54554;BME280;40450;55.848;-3.572;2023-08-01T05:27:39;97550.75;;;10.72;100.00
54554;BME280;40450;55.848;-3.572;2023-08-01T05:30:10;97549.64;;;10.95;100.00
54554;BME280;40450;55.848;-3.572;2023-08-01T05:32:39;97551.78;;;12.01;100.00
54554;BME280;40450;55.848;-3.572;2023-08-01T05:35:10;97552.18;;;10.60;100.00
54554;BME280;40450;55.848;-3.572;2023-08-01T05:37:40;97547.85;;;11.10;100.00
54554;BME280;40450;55.848;-3.572;2023-08-01T05:40:11;97547.29;;;10.79;100.00
54554;BME280;40450;55.848;-3.572;2023-08-01T05:42:41;97553.18;;;10.19;100.00
54554;BME280;40450;55.848;-3.572;2023-08-01T05:45:11;97548.56;;;10.89;100.00
54554;BME280;40450;55.848;-3.572;2023-08-01T05:47:41;97549.05;;;11.19;100.00
54554;BME280;40450;55.848;-3.572;2023-08-01T05:50:12;97548.14;;;10.60;100.00
54554;BME280;40450;55.848;-3.572;2023-08-01T05:52:42;97550.27;;;11.17;100.00
54554;BME280;40450;55.848;-3.572;2023-08-01T05:55:12;97551.92;;;10.91;100.00
54554;BME280;40450;55.848;-3.572;2023-08-01T05:57:43;97555.36;;;11.89;100.00
54554;BME280;40450;55.848;-3.572;2023-08-01T06:00:14;97555.40;;;12.87;100.00
54554;BME280;40450;55.848;-3.572;2023-08-01T06:02:44;97562.37;;;11.62;100.00
54554;BME280;40450;55.848;-3.572;2023-08-01T06:05:14;97562.75;;;12.61;100.00
54554;BME280;40450;55.848;-3.572;2023-08-01T06:07:44;97565.50;;;12.29;100.00
54554;BME280;40450;55.848;-3.572;2023-08-01T06:10:15;97571.23;;;12.46;99.95
54554;BME280;40450;55.848;-3.572;2023-08-01T06:12:45;97580.93;;;11.48;100.00
54554;BME280;40450;55.848;-3.572;2023-08-01T06:15:15;97584.05;;;11.88;100.00
54554;BME280;40450;55.848;-3.572;2023-08-01T06:17:45;97587.57;;;10.67;100.00
54554;BME280;40450;55.848;-3.572;2023-08-01T06:20:16;97589.84;;;12.29;100.00
54554;BME280;40450;55.848;-3.572;2023-08-01T06:22:46;97591.87;;;11.52;100.00
54554;BME280;40450;55.848;-3.572;2023-08-01T06:25:16;97595.15;;;11.70;100.00
54554;BME280;40450;55.848;-3.572;2023-08-01T06:27:47;97601.89;;;12.12;100.00
54554;BME280;40450;55.848;-3.572;2023-08-01T06:30:19;97607.67;;;11.38;100.00
54554;BME280;40450;55.848;-3.572;2023-08-01T06:32:47;97608.72;;;12.36;100.00
54554;BME280;40450;55.848;-3.572;2023-08-01T06:35:18;97609.95;;;11.03;100.00
54554;BME280;40450;55.848;-3.572;2023-08-01T06:37:48;97613.86;;;11.87;100.00
54554;BME280;40450;55.848;-3.572;2023-08-01T06:40:18;97619.16;;;11.29;100.00
54554;BME280;40450;55.848;-3.572;2023-08-01T06:42:49;97621.68;;;11.03;100.00
54554;BME280;40450;55.848;-3.572;2023-08-01T06:45:19;97626.37;;;11.04;100.00
54554;BME280;40450;55.848;-3.572;2023-08-01T06:47:49;97630.87;;;11.35;100.00
54554;BME280;40450;55.848;-3.572;2023-08-01T06:50:21;97631.13;;;12.72;100.00
54554;BME280;40450;55.848;-3.572;2023-08-01T06:52:50;97637.55;;;11.25;100.00
54554;BME280;40450;55.848;-3.572;2023-08-01T06:55:21;97643.00;;;12.20;100.00
54554;BME280;40450;55.848;-3.572;2023-08-01T06:57:51;97645.16;;;12.10;100.00
54554;BME280;40450;55.848;-3.572;2023-08-01T07:00:22;97653.88;;;11.69;100.00
54554;BME280;40450;55.848;-3.572;2023-08-01T07:02:52;97650.61;;;11.95;100.00
54554;BME280;40450;55.848;-3.572;2023-08-01T07:05:23;97650.87;;;11.67;100.00
54554;BME280;40450;55.848;-3.572;2023-08-01T07:07:54;97652.12;;;11.16;100.00
54554;BME280;40450;55.848;-3.572;2023-08-01T07:10:24;97661.21;;;10.67;100.00
54554;BME280;40450;55.848;-3.572;2023-08-01T07:12:54;97655.76;;;11.24;100.00
54554;BME280;40450;55.848;-3.572;2023-08-01T07:15:25;97659.20;;;11.34;100.00
54554;BME280;40450;55.848;-3.572;2023-08-01T07:17:56;97667.63;;;10.66;100.00
54554;BME280;40450;55.848;-3.572;2023-08-01T07:20:26;97664.29;;;11.52;100.00
54554;BME280;40450;55.848;-3.572;2023-08-01T07:22:56;97669.93;;;11.17;100.00
54554;BME280;40450;55.848;-3.572;2023-08-01T07:25:26;97668.97;;;11.57;100.00
54554;BME280;40450;55.848;-3.572;2023-08-01T07:27:56;97665.91;;;11.53;100.00
54554;BME280;40450;55.848;-3.572;2023-08-01T07:30:27;97671.09;;;11.59;100.00
54554;BME280;40450;55.848;-3.572;2023-08-01T07:32:57;97675.36;;;12.04;100.00
54554;BME280;40450;55.848;-3.572;2023-08-01T07:35:27;97683.42;;;10.40;100.00
54554;BME280;40450;55.848;-3.572;2023-08-01T07:37:58;97685.09;;;10.08;100.00
54554;BME280;40450;55.848;-3.572;2023-08-01T07:40:29;97680.66;;;11.26;100.00
54554;BME280;40450;55.848;-3.572;2023-08-01T07:42:59;97692.26;;;10.26;100.00
54554;BME280;40450;55.848;-3.572;2023-08-01T07:45:29;97688.20;;;11.67;100.00
54554;BME280;40450;55.848;-3.572;2023-08-01T07:47:59;97689.33;;;12.23;100.00
54554;BME280;40450;55.848;-3.572;2023-08-01T07:50:30;97689.47;;;12.20;100.00
54554;BME280;40450;55.848;-3.572;2023-08-01T07:53:00;97694.43;;;11.36;100.00
54554;BME280;40450;55.848;-3.572;2023-08-01T07:55:35;97690.22;;;11.96;100.00
54554;BME280;40450;55.848;-3.572;2023-08-01T07:58:00;97691.78;;;12.22;100.00
54554;BME280;40450;55.848;-3.572;2023-08-01T08:00:31;97697.40;;;12.01;100.00
54554;BME280;40450;55.848;-3.572;2023-08-01T08:03:02;97696.93;;;12.30;100.00
54554;BME280;40450;55.848;-3.572;2023-08-01T08:05:31;97707.23;;;11.31;100.00
54554;BME280;40450;55.848;-3.572;2023-08-01T08:08:01;97701.82;;;11.71;100.00
54554;BME280;40450;55.848;-3.572;2023-08-01T08:10:32;97699.72;;;12.98;100.00
54554;BME280;40450;55.848;-3.572;2023-08-01T08:13:02;97695.74;;;13.77;99.41
54554;BME280;40450;55.848;-3.572;2023-08-01T08:15:32;97699.54;;;12.90;100.00
54554;BME280;40450;55.848;-3.572;2023-08-01T08:18:08;97701.78;;;11.95;100.00
54554;BME280;40450;55.848;-3.572;2023-08-01T08:20:40;97704.34;;;12.91;100.00
54554;BME280;40450;55.848;-3.572;2023-08-01T08:23:03;97703.27;;;13.12;99.85
54554;BME280;40450;55.848;-3.572;2023-08-01T08:25:34;97708.56;;;13.35;100.00
54554;BME280;40450;55.848;-3.572;2023-08-01T08:28:05;97714.63;;;13.16;100.00
54554;BME280;40450;55.848;-3.572;2023-08-01T08:30:36;97713.89;;;12.73;100.00
54554;BME280;40450;55.848;-3.572;2023-08-01T08:33:05;97715.21;;;12.12;100.00
54554;BME280;40450;55.848;-3.572;2023-08-01T08:35:35;97716.68;;;11.77;100.00
54554;BME280;40450;55.848;-3.572;2023-08-01T08:38:05;97718.62;;;11.08;100.00
54554;BME280;40450;55.848;-3.572;2023-08-01T08:40:41;97724.80;;;10.90;100.00
54554;BME280;40450;55.848;-3.572;2023-08-01T08:43:06;97718.05;;;11.52;100.00
54554;BME280;40450;55.848;-3.572;2023-08-01T08:45:40;97715.37;;;12.26;100.00
54554;BME280;40450;55.848;-3.572;2023-08-01T08:48:11;97717.00;;;12.82;100.00
54554;BME280;40450;55.848;-3.572;2023-08-01T08:50:38;97717.56;;;14.20;100.00
54554;BME280;40450;55.848;-3.572;2023-08-01T08:53:08;97719.85;;;13.42;99.52
54554;BME280;40450;55.848;-3.572;2023-08-01T08:55:38;97718.38;;;13.48;99.55
54554;BME280;40450;55.848;-3.572;2023-08-01T08:58:08;97724.75;;;12.87;100.00
54554;BME280;40450;55.848;-3.572;2023-08-01T09:00:38;97734.93;;;11.20;100.00
54554;BME280;40450;55.848;-3.572;2023-08-01T09:03:09;97730.62;;;12.63;100.00
54554;BME280;40450;55.848;-3.572;2023-08-01T09:05:45;97735.30;;;11.36;100.00
54554;BME280;40450;55.848;-3.572;2023-08-01T09:08:15;97734.95;;;10.97;100.00
54554;BME280;40450;55.848;-3.572;2023-08-01T09:10:39;97741.31;;;10.86;100.00
54554;BME280;40450;55.848;-3.572;2023-08-01T09:13:10;97741.19;;;12.94;100.00
54554;BME280;40450;55.848;-3.572;2023-08-01T09:15:41;97744.64;;;13.31;100.00
54554;BME280;40450;55.848;-3.572;2023-08-01T09:18:11;97743.72;;;12.11;100.00
54554;BME280;40450;55.848;-3.572;2023-08-01T09:20:45;97753.80;;;11.44;100.00
54554;BME280;40450;55.848;-3.572;2023-08-01T09:23:12;97754.44;;;13.38;100.00
54554;BME280;40450;55.848;-3.572;2023-08-01T09:25:42;97755.32;;;12.44;100.00
54554;BME280;40450;55.848;-3.572;2023-08-01T09:28:17;97758.78;;;11.76;100.00
54554;BME280;40450;55.848;-3.572;2023-08-01T09:30:48;97760.10;;;14.10;99.90
54554;BME280;40450;55.848;-3.572;2023-08-01T09:33:13;97763.99;;;14.06;99.65
54554;BME280;40450;55.848;-3.572;2023-08-01T09:35:45;97763.23;;;13.21;99.68
54554;BME280;40450;55.848;-3.572;2023-08-01T09:38:14;97763.18;;;12.43;100.00
54554;BME280;40450;55.848;-3.572;2023-08-01T09:40:49;97763.69;;;11.51;100.00
54554;BME280;40450;55.848;-3.572;2023-08-01T09:43:14;97758.48;;;11.98;100.00
54554;BME280;40450;55.848;-3.572;2023-08-01T09:45:49;97760.57;;;13.36;100.00
54554;BME280;40450;55.848;-3.572;2023-08-01T09:50:45;97766.61;;;13.15;100.00
54554;BME280;40450;55.848;-3.572;2023-08-01T09:53:15;97772.96;;;11.52;100.00
54554;BME280;40450;55.848;-3.572;2023-08-01T09:55:46;97774.55;;;11.83;100.00
54554;BME280;40450;55.848;-3.572;2023-08-01T09:58:17;97774.87;;;11.93;100.00
54554;BME280;40450;55.848;-3.572;2023-08-01T10:00:46;97765.75;;;14.36;100.00
54554;BME280;40450;55.848;-3.572;2023-08-01T10:03:16;97767.97;;;13.03;100.00
54554;BME280;40450;55.848;-3.572;2023-08-01T10:05:47;97764.50;;;12.47;100.00
54554;BME280;40450;55.848;-3.572;2023-08-01T10:08:17;97760.38;;;13.29;100.00
54554;BME280;40450;55.848;-3.572;2023-08-01T10:10:48;97761.45;;;14.14;99.41
54554;BME280;40450;55.848;-3.572;2023-08-01T10:13:21;97767.19;;;12.81;100.00
54554;BME280;40450;55.848;-3.572;2023-08-01T10:15:48;97772.75;;;11.84;100.00
54554;BME280;40450;55.848;-3.572;2023-08-01T10:18:18;97773.71;;;11.92;100.00
54554;BME280;40450;55.848;-3.572;2023-08-01T10:20:49;97772.59;;;12.78;100.00
54554;BME280;40450;55.848;-3.572;2023-08-01T10:23:19;97769.89;;;13.16;100.00
54554;BME280;40450;55.848;-3.572;2023-08-01T10:25:50;97773.65;;;12.81;100.00
54554;BME280;40450;55.848;-3.572;2023-08-01T10:30:50;97779.82;;;11.99;100.00
54554;BME280;40450;55.848;-3.572;2023-08-01T10:33:21;97784.39;;;10.82;100.00
54554;BME280;40450;55.848;-3.572;2023-08-01T10:35:50;97777.99;;;11.60;100.00
54554;BME280;40450;55.848;-3.572;2023-08-01T10:38:21;97776.45;;;13.24;100.00
54554;BME280;40450;55.848;-3.572;2023-08-01T10:40:51;97773.29;;;14.26;99.38
54554;BME280;40450;55.848;-3.572;2023-08-01T10:43:22;97774.82;;;12.80;100.00
54554;BME280;40450;55.848;-3.572;2023-08-01T10:46:00;97782.85;;;12.64;100.00
54554;BME280;40450;55.848;-3.572;2023-08-01T10:48:23;97775.66;;;14.50;99.65
54554;BME280;40450;55.848;-3.572;2023-08-01T10:50:54;97781.68;;;12.88;100.00
54554;BME280;40450;55.848;-3.572;2023-08-01T10:53:23;97785.57;;;14.32;99.19
54554;BME280;40450;55.848;-3.572;2023-08-01T10:55:53;97795.01;;;13.72;100.00
54554;BME280;40450;55.848;-3.572;2023-08-01T10:58:27;97801.80;;;13.25;100.00
54554;BME280;40450;55.848;-3.572;2023-08-01T11:00:58;97805.04;;;14.04;98.40
54554;BME280;40450;55.848;-3.572;2023-08-01T11:05:57;97808.97;;;14.20;99.80
54554;BME280;40450;55.848;-3.572;2023-08-01T11:08:34;97819.06;;;11.74;100.00
54554;BME280;40450;55.848;-3.572;2023-08-01T11:10:55;97807.72;;;13.88;99.25
54554;BME280;40450;55.848;-3.572;2023-08-01T11:13:26;97804.89;;;13.31;99.93
54554;BME280;40450;55.848;-3.572;2023-08-01T11:15:57;97803.74;;;12.95;100.00
54554;BME280;40450;55.848;-3.572;2023-08-01T11:18:26;97801.31;;;14.24;97.77
54554;BME280;40450;55.848;-3.572;2023-08-01T11:20:57;97805.06;;;14.66;97.68
54554;BME280;40450;55.848;-3.572;2023-08-01T11:23:29;97812.46;;;15.25;96.97
54554;BME280;40450;55.848;-3.572;2023-08-01T11:25:58;97810.28;;;14.71;96.92
54554;BME280;40450;55.848;-3.572;2023-08-01T11:28:28;97813.33;;;13.78;98.55
54554;BME280;40450;55.848;-3.572;2023-08-01T11:30:59;97814.19;;;13.59;99.41
54554;BME280;40450;55.848;-3.572;2023-08-01T11:33:29;97809.59;;;14.63;98.48
54554;BME280;40450;55.848;-3.572;2023-08-01T11:35:59;97811.04;;;14.32;97.95
54554;BME280;40450;55.848;-3.572;2023-08-01T11:38:32;97812.80;;;15.15;96.93
54554;BME280;40450;55.848;-3.572;2023-08-01T11:41:01;97810.50;;;14.35;98.27
54554;BME280;40450;55.848;-3.572;2023-08-01T11:43:39;97811.90;;;14.63;97.99
54554;BME280;40450;55.848;-3.572;2023-08-01T11:46:01;97816.32;;;14.47;99.31
54554;BME280;40450;55.848;-3.572;2023-08-01T11:48:32;97814.98;;;15.18;98.09
54554;BME280;40450;55.848;-3.572;2023-08-01T11:51:02;97817.84;;;15.96;95.17
54554;BME280;40450;55.848;-3.572;2023-08-01T11:53:33;97815.69;;;12.63;100.00
54554;BME280;40450;55.848;-3.572;2023-08-01T11:56:03;97812.25;;;15.05;98.06
54554;BME280;40450;55.848;-3.572;2023-08-01T11:58:34;97816.45;;;13.38;99.51
54554;BME280;40450;55.848;-3.572;2023-08-01T12:01:05;97822.01;;;15.28;98.29
54554;BME280;40450;55.848;-3.572;2023-08-01T12:03:42;97827.16;;;15.46;96.32
54554;BME280;40450;55.848;-3.572;2023-08-01T12:06:04;97829.90;;;13.04;100.00
54554;BME280;40450;55.848;-3.572;2023-08-01T12:08:35;97833.06;;;13.30;99.78
54554;BME280;40450;55.848;-3.572;2023-08-01T12:11:05;97835.91;;;13.72;98.82
54554;BME280;40450;55.848;-3.572;2023-08-01T12:13:36;97833.63;;;14.35;97.77
54554;BME280;40450;55.848;-3.572;2023-08-01T12:16:06;97831.04;;;14.40;97.31
54554;BME280;40450;55.848;-3.572;2023-08-01T12:18:38;97824.27;;;16.25;93.68
54554;BME280;40450;55.848;-3.572;2023-08-01T12:21:06;97815.90;;;16.58;94.11
54554;BME280;40450;55.848;-3.572;2023-08-01T12:23:37;97814.37;;;17.86;89.81
54554;BME280;40450;55.848;-3.572;2023-08-01T12:26:07;97821.50;;;17.59;89.22
54554;BME280;40450;55.848;-3.572;2023-08-01T12:28:37;97828.62;;;14.77;94.66
54554;BME280;40450;55.848;-3.572;2023-08-01T12:31:08;97827.79;;;17.62;89.89
54554;BME280;40450;55.848;-3.572;2023-08-01T12:33:38;97827.98;;;18.60;85.35
54554;BME280;40450;55.848;-3.572;2023-08-01T12:36:08;97827.82;;;19.08;84.75
54554;BME280;40450;55.848;-3.572;2023-08-01T12:38:38;97828.67;;;18.09;82.86
54554;BME280;40450;55.848;-3.572;2023-08-01T12:41:08;97825.20;;;18.97;79.97
54554;BME280;40450;55.848;-3.572;2023-08-01T12:43:39;97827.01;;;19.34;80.43
54554;BME280;40450;55.848;-3.572;2023-08-01T12:46:10;97832.44;;;17.31;85.14
54554;BME280;40450;55.848;-3.572;2023-08-01T12:48:41;97828.25;;;18.85;81.17
54554;BME280;40450;55.848;-3.572;2023-08-01T12:51:11;97827.60;;;18.90;81.72
54554;BME280;40450;55.848;-3.572;2023-08-01T12:53:41;97825.22;;;19.27;79.39
54554;BME280;40450;55.848;-3.572;2023-08-01T12:56:12;97830.25;;;18.00;81.62
54554;BME280;40450;55.848;-3.572;2023-08-01T12:58:42;97827.00;;;17.50;84.65
54554;BME280;40450;55.848;-3.572;2023-08-01T13:01:12;97828.68;;;17.98;82.87
54554;BME280;40450;55.848;-3.572;2023-08-01T13:03:43;97825.60;;;18.19;81.92
54554;BME280;40450;55.848;-3.572;2023-08-01T13:06:13;97825.69;;;18.58;81.10
54554;BME280;40450;55.848;-3.572;2023-08-01T13:08:43;97825.80;;;16.95;86.17